Time;durP1;ratioP1;P1;durP2;ratioP2;P2;SDS_P1;SDS_P2;PMS_P1;PMS_P2;Temp;Humidity;BMP_temperature;BMP_pressure;BME280_temperature;BME280_humidity;BME280_pressure;Samples;Min_cycle;Max_cycle;Signal;HPM_P1;HPM_P2
2021/10/19 00:00:38;;;;;;;14.30;12.70;;;10.70;1.00;;;;;;5056162;28;20453;-80
2021/10/19 00:03:08;;;;;;;13.77;12.10;;;10.70;1.00;;;;;;5051706;28;20458;-78
2021/10/19 00:05:34;;;;;;;13.73;12.17;;;10.60;1.00;;;;;;5054001;28;20455;-79
2021/10/19 00:08:03;;;;;;;13.93;12.53;;;10.60;1.00;;;;;;5057768;28;20439;-79
2021/10/19 00:10:29;;;;;;;14.70;12.70;;;10.60;1.00;;;;;;5058045;28;20568;-79
2021/10/19 00:12:56;;;;;;;14.07;12.67;;;10.50;1.00;;;;;;5053475;28;20478;-80
2021/10/19 00:15:23;;;;;;;13.70;12.27;;;10.50;1.00;;;;;;5057818;28;20633;-79
2021/10/19 00:17:49;;;;;;;15.70;13.53;;;10.50;1.00;;;;;;5053005;28;20471;-80
2021/10/19 00:20:17;;;;;;;13.40;12.10;;;10.50;1.00;;;;;;5053874;28;20494;-79
2021/10/19 00:22:44;;;;;;;14.37;12.87;;;10.40;1.00;;;;;;5047612;28;20459;-79
2021/10/19 00:25:15;;;;;;;15.30;13.80;;;10.40;1.00;;;;;;5058158;28;21281;-79
2021/10/19 00:27:42;;;;;;;15.50;13.73;;;10.40;1.00;;;;;;5052446;28;20538;-80
2021/10/19 00:30:10;;;;;;;14.43;13.03;;;10.40;1.00;;;;;;5056450;28;20600;-80
2021/10/19 00:32:37;;;;;;;15.37;13.87;;;10.40;1.00;;;;;;5048948;28;20455;-80
2021/10/19 00:35:04;;;;;;;15.37;13.57;;;10.40;1.00;;;;;;5055486;28;20733;-80
2021/10/19 00:37:31;;;;;;;15.07;13.57;;;10.40;1.00;;;;;;5057137;28;20478;-79
2021/10/19 00:39:58;;;;;;;17.47;13.73;;;10.40;1.00;;;;;;5063402;28;20235;-79
2021/10/19 00:42:26;;;;;;;16.30;14.20;;;10.40;1.00;;;;;;5047756;28;20468;-79
2021/10/19 00:44:53;;;;;;;16.52;14.88;;;10.40;1.00;;;;;;5062905;28;20552;-79
2021/10/19 00:47:21;;;;;;;16.03;14.43;;;10.40;1.00;;;;;;5065043;28;20221;-80
2021/10/19 00:49:49;;;;;;;14.50;12.83;;;10.40;1.00;;;;;;5069735;28;20928;-79
2021/10/19 00:52:17;;;;;;;15.70;14.03;;;10.40;1.00;;;;;;5063630;28;20456;-79
2021/10/19 00:54:44;;;;;;;15.07;13.57;;;10.40;1.00;;;;;;5066906;28;20460;-79
2021/10/19 00:57:11;;;;;;;22.20;19.13;;;10.40;1.00;;;;;;5065560;28;20226;-79
2021/10/19 00:59:43;;;;;;;19.13;16.63;;;10.40;1.00;;;;;;5060362;28;20232;-79
2021/10/19 01:02:10;;;;;;;17.77;15.60;;;10.40;1.00;;;;;;5078640;28;20445;-79
2021/10/19 01:04:37;;;;;;;19.80;15.43;;;10.40;1.00;;;;;;5081452;28;20277;-78
2021/10/19 01:07:04;;;;;;;16.77;15.13;;;10.40;1.00;;;;;;5073380;28;20463;-79
2021/10/19 01:09:31;;;;;;;16.00;14.40;;;10.40;1.00;;;;;;5069305;28;20450;-79
2021/10/19 01:11:58;;;;;;;20.90;16.90;;;10.30;1.00;;;;;;5067736;28;20498;-80
2021/10/19 01:14:24;;;;;;;20.33;15.43;;;10.30;1.00;;;;;;5068101;28;20466;-79
2021/10/19 01:16:52;;;;;;;16.80;15.00;;;10.20;1.00;;;;;;5053303;28;20441;-78
2021/10/19 01:19:22;;;;;;;17.13;15.33;;;10.20;1.00;;;;;;5050937;28;20464;-79
2021/10/19 01:21:52;;;;;;;19.90;15.27;;;10.20;1.00;;;;;;5053989;28;21079;-80
2021/10/19 01:24:19;;;;;;;19.15;15.40;;;10.20;1.00;;;;;;5057670;28;21128;-79
2021/10/19 01:26:46;;;;;;;17.75;15.75;;;10.20;1.00;;;;;;5049759;28;20240;-79
2021/10/19 01:29:13;;;;;;;20.60;16.73;;;10.10;1.00;;;;;;5050329;28;21050;-81
2021/10/19 01:31:40;;;;;;;17.93;16.07;;;10.10;1.00;;;;;;5056523;28;20439;-79
2021/10/19 01:34:07;;;;;;;17.10;15.33;;;10.10;1.00;;;;;;5052461;28;20463;-79
2021/10/19 01:36:33;;;;;;;19.27;17.27;;;10.00;1.00;;;;;;5050046;28;20492;-79
2021/10/19 01:39:01;;;;;;;18.00;15.80;;;10.00;1.00;;;;;;5052262;28;20489;-79
2021/10/19 01:41:28;;;;;;;17.40;15.60;;;10.00;1.00;;;;;;5056184;28;20470;-79
2021/10/19 01:43:55;;;;;;;18.23;16.33;;;10.00;1.00;;;;;;5054822;28;21047;-79
2021/10/19 01:46:22;;;;;;;17.53;15.63;;;9.90;1.00;;;;;;5055929;28;20519;-79
2021/10/19 01:48:49;;;;;;;20.03;17.90;;;9.90;1.00;;;;;;5051113;28;20455;-79
2021/10/19 01:51:15;;;;;;;18.53;16.63;;;9.90;1.00;;;;;;5053281;28;20916;-80
2021/10/19 01:53:42;;;;;;;18.90;16.90;;;10.00;1.00;;;;;;5049625;28;20997;-80
2021/10/19 01:56:11;;;;;;;17.92;16.02;;;9.90;1.00;;;;;;5052513;28;21326;-79
2021/10/19 01:58:38;;;;;;;20.70;18.57;;;9.90;1.00;;;;;;5062763;28;20225;-79
2021/10/19 02:01:05;;;;;;;20.03;17.50;;;9.90;1.00;;;;;;5064238;28;21091;-79
2021/10/19 02:03:31;;;;;;;18.03;16.03;;;9.90;1.00;;;;;;5051449;28;20451;-79
2021/10/19 02:05:58;;;;;;;20.47;18.37;;;10.00;1.00;;;;;;5054597;28;20449;-79
2021/10/19 02:08:25;;;;;;;21.80;18.20;;;10.00;1.00;;;;;;5059001;28;20458;-78
2021/10/19 02:10:52;;;;;;;18.73;16.83;;;9.90;1.00;;;;;;5080734;28;20422;-79
2021/10/19 02:13:20;;;;;;;22.80;18.00;;;9.90;1.00;;;;;;5073261;28;20478;-79
2021/10/19 02:15:47;;;;;;;19.85;17.63;;;9.90;1.00;;;;;;5059853;28;20415;-79
2021/10/19 02:18:14;;;;;;;20.60;17.33;;;10.00;1.00;;;;;;5055444;28;20223;-79
2021/10/19 02:20:41;;;;;;;21.17;18.70;;;10.00;1.00;;;;;;5060710;28;20505;-79
2021/10/19 02:23:08;;;;;;;20.90;18.43;;;10.00;1.00;;;;;;5057948;28;21101;-78
2021/10/19 02:25:36;;;;;;;19.87;17.80;;;10.00;1.00;;;;;;5057880;28;20442;-80
2021/10/19 02:28:02;;;;;;;19.20;17.20;;;10.10;1.00;;;;;;5061825;28;20532;-79
2021/10/19 02:30:31;;;;;;;20.53;18.33;;;10.20;1.00;;;;;;5057138;28;20475;-79
2021/10/19 02:32:59;;;;;;;21.47;19.40;;;10.20;1.00;;;;;;5056581;28;20916;-79
2021/10/19 02:35:25;;;;;;;24.95;21.33;;;10.20;1.00;;;;;;5059279;28;20470;-79
2021/10/19 02:37:54;;;;;;;20.70;18.50;;;10.20;1.00;;;;;;5058143;28;20833;-79
2021/10/19 02:40:21;;;;;;;20.83;18.53;;;10.20;1.00;;;;;;5048786;28;20471;-79
2021/10/19 02:42:48;;;;;;;21.53;19.03;;;10.20;1.00;;;;;;5059192;28;20419;-79
2021/10/19 02:45:15;;;;;;;20.27;18.07;;;10.10;1.00;;;;;;5057293;28;20447;-80
2021/10/19 02:47:43;;;;;;;19.53;17.50;;;10.10;1.00;;;;;;5055839;28;20467;-80
2021/10/19 02:50:11;;;;;;;23.03;20.70;;;10.10;1.00;;;;;;5056316;28;20475;-79
2021/10/19 02:52:38;;;;;;;19.90;17.80;;;10.10;1.00;;;;;;5060057;28;20464;-80
2021/10/19 02:55:07;;;;;;;21.20;18.70;;;10.10;1.00;;;;;;5054203;28;21627;-80
2021/10/19 02:57:33;;;;;;;24.30;20.10;;;10.00;1.00;;;;;;5059052;28;20440;-80
2021/10/19 03:00:00;;;;;;;21.70;18.50;;;10.10;1.00;;;;;;5053640;28;20510;-80
2021/10/19 03:02:27;;;;;;;20.97;18.53;;;10.00;1.00;;;;;;5059161;28;21798;-80
2021/10/19 03:04:55;;;;;;;20.30;18.27;;;10.10;1.00;;;;;;5054545;28;20462;-80
2021/10/19 03:07:21;;;;;;;21.97;18.20;;;10.10;1.00;;;;;;5057152;28;20415;-79
2021/10/19 03:09:48;;;;;;;19.87;17.77;;;10.10;1.00;;;;;;5073388;28;20519;-78
2021/10/19 03:12:15;;;;;;;22.37;19.10;;;10.10;1.00;;;;;;5076175;28;20744;-79
2021/10/19 03:14:43;;;;;;;22.30;18.80;;;10.10;1.00;;;;;;5066578;28;20536;-79
2021/10/19 03:17:09;;;;;;;20.87;18.70;;;10.00;1.00;;;;;;5059859;28;20463;-79
2021/10/19 03:19:36;;;;;;;20.50;18.30;;;10.00;1.00;;;;;;5055880;28;20562;-80
2021/10/19 03:22:04;;;;;;;21.30;19.13;;;9.90;1.00;;;;;;5061851;28;20473;-79
2021/10/19 03:24:31;;;;;;;22.07;19.77;;;9.90;1.00;;;;;;5061707;28;20892;-80
2021/10/19 03:26:58;;;;;;;23.57;19.20;;;9.90;1.00;;;;;;5057332;28;20470;-79
2021/10/19 03:29:25;;;;;;;23.30;19.70;;;9.90;1.00;;;;;;5060504;28;20425;-78
2021/10/19 03:31:52;;;;;;;21.73;18.83;;;9.90;1.00;;;;;;5064368;28;20537;-79
2021/10/19 03:34:19;;;;;;;21.53;18.50;;;9.90;1.00;;;;;;5078280;28;24735;-79
2021/10/19 03:36:46;;;;;;;22.87;20.23;;;9.90;1.00;;;;;;5055826;28;20439;-79
2021/10/19 03:39:16;;;;;;;24.00;21.40;;;9.90;1.00;;;;;;5055327;28;21420;-79
2021/10/19 03:41:43;;;;;;;22.83;19.10;;;9.90;1.00;;;;;;5058109;28;22348;-79
2021/10/19 03:44:10;;;;;;;22.70;19.33;;;9.90;1.00;;;;;;5059106;28;20446;-80
2021/10/19 03:46:37;;;;;;;23.43;20.90;;;9.90;1.00;;;;;;5054195;28;20468;-78
2021/10/19 03:49:03;;;;;;;21.80;18.80;;;10.00;1.00;;;;;;5056669;28;20460;-79
2021/10/19 03:51:30;;;;;;;20.70;18.60;;;10.00;1.00;;;;;;5056755;28;20459;-79
2021/10/19 03:53:57;;;;;;;21.87;19.50;;;10.00;1.00;;;;;;5055674;28;20466;-79
2021/10/19 03:56:25;;;;;;;20.47;18.33;;;10.00;1.00;;;;;;5055522;28;20448;-79
2021/10/19 03:58:51;;;;;;;22.60;19.83;;;10.00;1.00;;;;;;5058552;28;20445;-78
2021/10/19 04:01:18;;;;;;;22.48;19.60;;;9.90;1.00;;;;;;5057910;28;20504;-77
2021/10/19 04:03:45;;;;;;;21.52;19.33;;;10.00;1.00;;;;;;5080029;28;20259;-79
2021/10/19 04:06:12;;;;;;;24.33;20.43;;;9.90;1.00;;;;;;5075754;28;20225;-81
2021/10/19 04:08:39;;;;;;;22.13;19.83;;;9.90;1.00;;;;;;5056843;28;20538;-80
2021/10/19 04:11:06;;;;;;;22.30;19.40;;;9.90;1.00;;;;;;5050859;28;20980;-79
2021/10/19 04:13:35;;;;;;;48.55;36.08;;;9.90;1.00;;;;;;5055405;28;21354;-79
2021/10/19 04:16:02;;;;;;;51.87;37.20;;;9.90;1.00;;;;;;5056845;28;20277;-79
2021/10/19 04:18:29;;;;;;;25.83;21.27;;;9.90;1.00;;;;;;5055574;28;20444;-79
2021/10/19 04:20:56;;;;;;;22.33;19.93;;;9.90;1.00;;;;;;5061003;28;20589;-80
2021/10/19 04:23:23;;;;;;;23.27;20.77;;;9.90;1.00;;;;;;5056318;28;21170;-78
2021/10/19 04:25:50;;;;;;;22.97;19.83;;;9.90;1.00;;;;;;5054526;28;20442;-80
2021/10/19 04:28:17;;;;;;;22.70;18.40;;;9.90;1.00;;;;;;5058861;28;20931;-81
2021/10/19 04:30:47;;;;;;;23.10;20.40;;;9.80;1.00;;;;;;5055494;28;20470;-79
2021/10/19 04:33:14;;;;;;;21.07;18.83;;;9.80;1.00;;;;;;5054263;28;21397;-79
2021/10/19 04:35:41;;;;;;;23.37;20.47;;;9.70;1.00;;;;;;5055678;28;20943;-79
2021/10/19 04:38:07;;;;;;;20.83;17.90;;;9.70;1.00;;;;;;5057831;28;20543;-79
2021/10/19 04:40:34;;;;;;;22.23;19.83;;;9.70;1.00;;;;;;5059249;28;21241;-80
2021/10/19 04:43:01;;;;;;;23.40;18.83;;;9.70;1.00;;;;;;5060051;28;21251;-79
2021/10/19 04:45:28;;;;;;;22.13;19.73;;;9.70;1.00;;;;;;5063897;28;20235;-79
2021/10/19 04:47:56;;;;;;;21.57;19.13;;;9.70;1.00;;;;;;5059410;28;20457;-79
2021/10/19 04:50:23;;;;;;;22.60;20.07;;;9.70;1.00;;;;;;5056740;28;20458;-79
2021/10/19 04:52:50;;;;;;;26.37;22.67;;;9.60;1.00;;;;;;5055298;28;21037;-79
2021/10/19 04:55:17;;;;;;;26.23;21.60;;;9.70;1.00;;;;;;5055195;28;20447;-78
2021/10/19 04:57:43;;;;;;;22.43;20.13;;;9.70;1.00;;;;;;5056629;28;20729;-78
2021/10/19 05:00:11;;;;;;;24.13;20.17;;;9.60;1.00;;;;;;5056104;28;20475;-79
2021/10/19 05:02:45;;;;;;;22.38;20.08;;;9.60;1.00;;;;;;5060322;28;20221;-78
2021/10/19 05:05:14;;;;;;;23.73;19.30;;;9.50;1.00;;;;;;5073309;28;20255;-78
2021/10/19 05:07:41;;;;;;;23.90;21.05;;;9.50;1.00;;;;;;5060455;28;20222;-79
2021/10/19 05:10:08;;;;;;;22.58;20.17;;;9.50;1.00;;;;;;5052132;28;20230;-79
2021/10/19 05:12:35;;;;;;;26.15;19.80;;;9.50;1.00;;;;;;5056784;28;20663;-80
2021/10/19 05:15:02;;;;;;;23.17;20.73;;;9.40;1.00;;;;;;5054502;28;20319;-80
2021/10/19 05:17:29;;;;;;;26.13;20.93;;;9.50;1.00;;;;;;5053884;28;20491;-80
2021/10/19 05:19:56;;;;;;;25.23;21.40;;;9.50;1.00;;;;;;5063424;28;20550;-79
2021/10/19 05:22:25;;;;;;;23.80;20.20;;;9.50;1.00;;;;;;5060906;28;20226;-79
2021/10/19 05:24:52;;;;;;;25.20;22.33;;;9.60;1.00;;;;;;5064077;28;20225;-80
2021/10/19 05:27:19;;;;;;;26.00;20.83;;;9.60;1.00;;;;;;5066016;28;20558;-80
2021/10/19 05:29:45;;;;;;;24.07;20.37;;;9.60;1.00;;;;;;5063382;28;20458;-79
2021/10/19 05:32:12;;;;;;;23.65;21.15;;;9.70;1.00;;;;;;5065620;28;20442;-81
2021/10/19 05:34:39;;;;;;;24.77;20.53;;;9.70;1.00;;;;;;5068465;28;20746;-81
2021/10/19 05:37:05;;;;;;;23.48;20.98;;;9.60;1.00;;;;;;5067700;28;20449;-80
2021/10/19 05:39:33;;;;;;;25.40;20.52;;;9.60;1.00;;;;;;5075521;28;22338;-80
2021/10/19 05:42:00;;;;;;;25.63;20.90;;;9.60;1.00;;;;;;5060685;28;20386;-79
2021/10/19 05:44:27;;;;;;;23.90;21.03;;;9.60;1.00;;;;;;5065546;28;20267;-79
2021/10/19 05:46:54;;;;;;;24.37;20.00;;;9.60;1.00;;;;;;5053951;28;20613;-79
2021/10/19 05:49:20;;;;;;;24.95;19.88;;;9.60;1.00;;;;;;5059042;28;20557;-80
2021/10/19 05:51:48;;;;;;;23.93;20.77;;;9.70;1.00;;;;;;5059652;28;20234;-79
2021/10/19 05:54:16;;;;;;;23.97;20.07;;;9.70;1.00;;;;;;5062156;28;21047;-80
2021/10/19 05:56:44;;;;;;;25.20;21.57;;;9.80;1.00;;;;;;5060078;28;20446;-80
2021/10/19 05:59:11;;;;;;;24.60;20.50;;;9.80;1.00;;;;;;5062494;28;21868;-80
2021/10/19 06:01:38;;;;;;;25.00;20.50;;;9.90;1.00;;;;;;5061468;28;20644;-80
2021/10/19 06:04:05;;;;;;;25.83;20.60;;;9.90;1.00;;;;;;5068005;28;20452;-79
2021/10/19 06:06:32;;;;;;;26.30;21.27;;;9.90;1.00;;;;;;5082988;28;20414;-80
2021/10/19 06:08:59;;;;;;;23.00;20.53;;;10.00;1.00;;;;;;5063001;28;21153;-78
2021/10/19 06:11:26;;;;;;;25.00;21.07;;;10.00;1.00;;;;;;5066856;28;20491;-79
2021/10/19 06:13:54;;;;;;;24.80;21.80;;;10.00;1.00;;;;;;5058734;28;20451;-80
2021/10/19 06:16:21;;;;;;;25.07;20.63;;;10.00;1.00;;;;;;5062200;28;20483;-79
2021/10/19 06:18:48;;;;;;;24.63;20.77;;;10.00;1.00;;;;;;5056822;28;21512;-81
2021/10/19 06:21:15;;;;;;;22.47;19.33;;;10.10;1.00;;;;;;5058668;28;20463;-79
2021/10/19 06:23:42;;;;;;;25.00;19.87;;;10.10;1.00;;;;;;5062373;28;21270;-80
2021/10/19 06:26:10;;;;;;;24.17;21.53;;;10.20;1.00;;;;;;5066660;28;21034;-80
2021/10/19 06:28:36;;;;;;;24.70;22.00;;;10.20;1.00;;;;;;5063817;28;20555;-79
2021/10/19 06:31:04;;;;;;;24.73;20.33;;;10.30;1.00;;;;;;5062758;28;20447;-80
2021/10/19 06:33:31;;;;;;;27.73;20.63;;;10.40;1.00;;;;;;5062993;28;21193;-80
2021/10/19 06:35:58;;;;;;;25.90;20.77;;;10.50;1.00;;;;;;5061937;28;20443;-80
2021/10/19 06:38:25;;;;;;;23.17;20.77;;;10.60;1.00;;;;;;5067489;28;20570;-80
2021/10/19 06:40:51;;;;;;;29.13;21.47;;;10.70;1.00;;;;;;5067790;28;20224;-79
2021/10/19 06:43:18;;;;;;;27.03;19.90;;;10.70;1.00;;;;;;5062292;28;22057;-81
2021/10/19 06:45:45;;;;;;;25.13;20.40;;;10.80;1.00;;;;;;5061493;28;20475;-79
2021/10/19 06:48:13;;;;;;;25.37;19.43;;;10.80;1.00;;;;;;5065329;28;20468;-80
2021/10/19 06:50:39;;;;;;;22.20;19.80;;;10.70;1.00;;;;;;5065737;28;20444;-80
2021/10/19 06:53:06;;;;;;;22.60;20.20;;;10.80;1.00;;;;;;5067529;28;21763;-80
2021/10/19 06:55:34;;;;;;;25.50;21.17;;;10.80;1.00;;;;;;5066493;28;20550;-79
2021/10/19 06:58:01;;;;;;;23.67;20.70;;;10.90;1.00;;;;;;5064830;28;21659;-79
2021/10/19 07:00:28;;;;;;;23.07;19.80;;;11.00;1.00;;;;;;5066230;28;20989;-81
2021/10/19 07:02:54;;;;;;;27.10;20.70;;;11.00;1.00;;;;;;5064935;28;20653;-81
2021/10/19 07:05:22;;;;;;;24.77;20.17;;;11.00;1.00;;;;;;5070936;28;22289;-81
2021/10/19 07:07:49;;;;;;;21.67;19.37;;;10.90;1.00;;;;;;5071303;28;21313;-81
2021/10/19 07:10:19;;;;;;;21.80;18.90;;;10.90;1.00;;;;;;5066968;28;21364;-81
2021/10/19 07:12:46;;;;;;;23.57;20.90;;;11.00;1.00;;;;;;5068182;28;21200;-79
2021/10/19 07:15:14;;;;;;;23.30;20.80;;;11.00;1.00;;;;;;5063716;28;20447;-80
2021/10/19 07:17:42;;;;;;;21.03;18.20;;;11.10;1.00;;;;;;5061925;28;21145;-79
2021/10/19 07:20:10;;;;;;;24.93;19.93;;;11.20;1.00;;;;;;5063861;28;20451;-80
2021/10/19 07:22:40;;;;;;;21.53;18.57;;;11.20;1.00;;;;;;5073475;28;20484;-79
2021/10/19 07:25:12;;;;;;;22.00;18.90;;;11.30;1.00;;;;;;5083496;28;20785;-79
2021/10/19 07:27:41;;;;;;;22.27;19.73;;;11.30;1.00;;;;;;5084462;28;20520;-80
2021/10/19 07:30:11;;;;;;;24.60;19.37;;;11.50;1.00;;;;;;5066508;28;20474;-80
2021/10/19 07:32:37;;;;;;;22.90;18.90;;;11.60;1.00;;;;;;5067847;28;20479;-80
2021/10/19 07:35:05;;;;;;;26.30;20.80;;;11.60;1.00;;;;;;5067322;28;20571;-80
2021/10/19 07:37:36;;;;;;;26.73;20.63;;;11.80;1.00;;;;;;5053408;28;20494;-76
2021/10/19 07:40:05;;;;;;;20.47;18.23;;;11.70;1.00;;;;;;5050123;28;20924;-77
2021/10/19 07:42:33;;;;;;;23.97;19.93;;;11.70;1.00;;;;;;5056856;28;20606;-75
2021/10/19 07:45:00;;;;;;;22.47;19.30;;;11.80;1.00;;;;;;5052251;28;21658;-75
2021/10/19 07:47:26;;;;;;;20.60;17.93;;;11.80;1.00;;;;;;5054007;28;20455;-76
2021/10/19 07:49:53;;;;;;;23.03;20.63;;;11.90;1.00;;;;;;5051402;28;20430;-76
2021/10/19 07:52:22;;;;;;;22.93;19.30;;;12.00;1.00;;;;;;5047087;28;20608;-77
2021/10/19 07:54:48;;;;;;;21.50;18.93;;;12.00;1.00;;;;;;5050277;28;20466;-77
2021/10/19 07:57:16;;;;;;;24.40;20.03;;;12.00;1.00;;;;;;5044401;28;21432;-77
2021/10/19 07:59:43;;;;;;;23.93;20.90;;;12.00;1.00;;;;;;5045033;28;20455;-77
2021/10/19 08:02:10;;;;;;;24.67;19.40;;;11.90;1.00;;;;;;5047471;28;20487;-77
2021/10/19 08:04:37;;;;;;;24.47;20.53;;;11.90;1.00;;;;;;5055087;28;20468;-77
2021/10/19 08:07:03;;;;;;;22.97;19.93;;;11.90;1.00;;;;;;5052306;28;20528;-77
2021/10/19 08:09:30;;;;;;;22.80;19.80;;;12.00;1.00;;;;;;5046863;28;20461;-78
2021/10/19 08:11:57;;;;;;;28.77;19.93;;;12.00;1.00;;;;;;5051610;28;20484;-77
2021/10/19 08:14:25;;;;;;;24.73;19.10;;;12.10;1.00;;;;;;5045199;28;20455;-77
2021/10/19 08:16:51;;;;;;;28.00;19.97;;;12.30;1.00;;;;;;5048837;28;20419;-77
2021/10/19 08:19:18;;;;;;;21.57;19.10;;;12.50;1.00;;;;;;5046098;28;22609;-77
2021/10/19 08:21:45;;;;;;;23.60;19.20;;;13.10;1.00;;;;;;5051176;28;20486;-77
2021/10/19 08:24:11;;;;;;;21.30;19.03;;;13.60;1.00;;;;;;5051718;28;20454;-76
2021/10/19 08:26:39;;;;;;;24.37;20.20;;;14.10;1.00;;;;;;5051281;28;20460;-76
2021/10/19 08:29:06;;;;;;;20.57;18.00;;;14.20;1.00;;;;;;5053529;28;20467;-77
2021/10/19 08:31:34;;;;;;;24.30;19.40;;;14.20;1.00;;;;;;5050240;28;20447;-77
2021/10/19 08:34:01;;;;;;;23.43;19.27;;;14.50;1.00;;;;;;5054161;28;20467;-80
2021/10/19 08:36:27;;;;;;;23.90;20.00;;;14.80;1.00;;;;;;5048112;28;20593;-78
2021/10/19 08:38:54;;;;;;;19.60;17.27;;;14.90;1.00;;;;;;5050301;28;20696;-77
2021/10/19 08:41:24;;;;;;;22.50;19.10;;;15.00;1.00;;;;;;5049229;28;20459;-80
2021/10/19 08:43:50;;;;;;;19.30;16.90;;;15.30;1.00;;;;;;5053738;28;20479;-76
2021/10/19 08:46:18;;;;;;;21.17;18.93;;;15.70;1.00;;;;;;5050201;28;20480;-77
2021/10/19 08:48:46;;;;;;;18.43;16.43;;;16.40;1.00;;;;;;5050250;28;20494;-77
2021/10/19 08:51:14;;;;;;;21.30;16.27;;;17.40;1.00;;;;;;5047892;28;20428;-77
2021/10/19 08:53:43;;;;;;;20.67;16.93;;;18.30;1.00;;;;;;5041674;28;20559;-77
2021/10/19 08:56:10;;;;;;;20.33;16.90;;;18.30;1.00;;;;;;5049095;28;20609;-76
2021/10/19 08:58:38;;;;;;;17.93;16.13;;;18.00;1.00;;;;;;5053586;28;21064;-76
2021/10/19 09:01:06;;;;;;;18.47;16.57;;;17.30;1.00;;;;;;5053429;28;20448;-77
2021/10/19 09:03:33;;;;;;;19.20;17.20;;;16.70;1.00;;;;;;5053591;28;20963;-77
2021/10/19 09:06:02;;;;;;;19.00;16.13;;;16.60;1.00;;;;;;5054066;28;20466;-76
2021/10/19 09:08:28;;;;;;;19.43;15.97;;;16.50;1.00;;;;;;5059016;28;20536;-78
2021/10/19 09:10:55;;;;;;;18.47;16.57;;;16.50;1.00;;;;;;5053386;28;21409;-77
2021/10/19 09:13:22;;;;;;;17.40;15.43;;;16.50;1.00;;;;;;5057508;28;20715;-76
2021/10/19 09:15:51;;;;;;;18.40;15.43;;;16.40;1.00;;;;;;5057421;28;20420;-78
2021/10/19 09:18:19;;;;;;;18.20;15.90;;;16.20;1.00;;;;;;5061481;28;20423;-77
2021/10/19 09:20:48;;;;;;;18.20;16.30;;;16.00;1.00;;;;;;5055448;28;21827;-77
2021/10/19 09:23:18;;;;;;;19.77;16.60;;;16.20;1.00;;;;;;5057642;28;21403;-76
2021/10/19 09:25:48;;;;;;;17.63;15.83;;;16.20;1.00;;;;;;5060251;28;21345;-78
2021/10/19 09:28:17;;;;;;;16.43;14.83;;;16.40;1.00;;;;;;5072535;28;21223;-76
2021/10/19 09:30:47;;;;;;;21.33;15.83;;;16.30;1.00;;;;;;5061194;28;20475;-77
2021/10/19 09:33:15;;;;;;;20.10;17.50;;;16.10;1.00;;;;;;5055121;28;21105;-78
2021/10/19 09:35:43;;;;;;;17.53;15.73;;;16.10;1.00;;;;;;5050586;28;20480;-78
2021/10/19 09:38:12;;;;;;;17.00;15.20;;;16.10;1.00;;;;;;5055186;28;20448;-78
2021/10/19 09:40:42;;;;;;;19.70;16.07;;;16.00;1.00;;;;;;5051538;28;20440;-78
2021/10/19 09:43:11;;;;;;;16.97;15.17;;;15.90;1.00;;;;;;5052229;28;20614;-77
2021/10/19 09:45:40;;;;;;;20.40;15.93;;;15.90;1.00;;;;;;5051240;28;20468;-77
2021/10/19 09:48:11;;;;;;;18.53;15.30;;;16.00;1.00;;;;;;5055241;28;20458;-78
2021/10/19 09:50:39;;;;;;;17.40;14.73;;;15.90;1.00;;;;;;5058432;28;20459;-77
2021/10/19 09:53:06;;;;;;;17.37;15.27;;;16.00;1.00;;;;;;5051488;28;20467;-78
2021/10/19 09:55:33;;;;;;;17.70;15.90;;;15.90;1.00;;;;;;5057533;28;20956;-78
2021/10/19 09:58:04;;;;;;;17.07;14.80;;;15.80;1.00;;;;;;5051968;28;22109;-78
2021/10/19 10:00:33;;;;;;;18.83;15.17;;;15.90;1.00;;;;;;5051783;28;20456;-79
2021/10/19 10:03:03;;;;;;;17.67;15.47;;;16.00;1.00;;;;;;5046847;28;20556;-76
2021/10/19 10:05:29;;;;;;;17.80;14.97;;;16.00;1.00;;;;;;5051034;28;20468;-78
2021/10/19 10:07:57;;;;;;;17.00;14.83;;;16.10;1.00;;;;;;5047899;28;20457;-78
2021/10/19 10:10:25;;;;;;;16.03;14.33;;;16.30;1.00;;;;;;5051017;28;20457;-76
2021/10/19 10:12:59;;;;;;;15.80;14.07;;;16.30;1.00;;;;;;5058945;28;20507;-80
2021/10/19 10:15:32;;;;;;;18.27;15.10;;;16.30;1.00;;;;;;5059786;28;21029;-80
2021/10/19 10:18:03;;;;;;;15.53;13.83;;;16.40;1.00;;;;;;5049760;28;20550;-79
2021/10/19 10:20:35;;;;;;;17.27;14.60;;;16.60;1.00;;;;;;5051412;28;20465;-83
2021/10/19 10:23:13;;;;;;;15.97;13.83;;;16.70;1.00;;;;;;5053956;28;20995;-80
2021/10/19 10:25:40;;;;;;;17.47;13.80;;;16.80;1.00;;;;;;5053869;28;20466;-78
2021/10/19 10:28:15;;;;;;;15.60;14.10;;;16.90;1.00;;;;;;5054600;28;20559;-79
2021/10/19 10:30:47;;;;;;;16.20;13.33;;;16.90;1.00;;;;;;5055366;28;20454;-78
2021/10/19 10:33:13;;;;;;;15.20;13.60;;;17.00;1.00;;;;;;5050949;28;20923;-79
2021/10/19 10:35:45;;;;;;;16.63;13.77;;;17.00;1.00;;;;;;5059136;28;20421;-76
2021/10/19 10:38:12;;;;;;;15.50;13.90;;;17.10;1.00;;;;;;5058785;28;20434;-79
2021/10/19 10:40:40;;;;;;;17.63;14.83;;;17.20;1.00;;;;;;5052901;28;20517;-77
2021/10/19 10:43:20;;;;;;;17.23;14.70;;;17.30;1.00;;;;;;5045399;28;20460;-78
2021/10/19 10:45:50;;;;;;;15.13;13.03;;;17.40;1.00;;;;;;5057225;28;20554;-77
2021/10/19 10:48:18;;;;;;;19.90;14.07;;;17.40;1.00;;;;;;5053716;28;20517;-78
2021/10/19 10:50:45;;;;;;;16.47;13.97;;;17.40;1.00;;;;;;5055119;28;20435;-79
2021/10/19 10:53:13;;;;;;;14.87;12.27;;;17.40;1.00;;;;;;5052918;28;20590;-79
2021/10/19 10:55:42;;;;;;;14.90;13.17;;;17.50;1.00;;;;;;5054363;28;20543;-78
2021/10/19 10:58:09;;;;;;;14.80;13.33;;;17.60;1.00;;;;;;5054592;28;20504;-78
2021/10/19 11:00:36;;;;;;;15.50;13.17;;;17.80;1.00;;;;;;5052420;28;21331;-78
2021/10/19 11:03:11;;;;;;;15.30;12.60;;;17.90;1.00;;;;;;5050624;28;20475;-78
2021/10/19 11:05:50;;;;;;;16.70;13.53;;;18.00;1.00;;;;;;5057175;28;20475;-78
2021/10/19 11:08:21;;;;;;;14.83;13.30;;;17.90;1.00;;;;;;5061172;28;20456;-79
2021/10/19 11:10:51;;;;;;;18.17;14.20;;;18.00;1.00;;;;;;5054079;28;20443;-79
2021/10/19 11:13:17;;;;;;;13.60;11.80;;;18.00;1.00;;;;;;5060677;28;20466;-79
2021/10/19 11:15:51;;;;;;;16.20;13.63;;;18.10;1.00;;;;;;5067945;28;20459;-77
2021/10/19 11:18:20;;;;;;;14.13;12.63;;;18.20;1.00;;;;;;5068281;28;20459;-78
2021/10/19 11:20:54;;;;;;;16.13;13.13;;;18.40;1.00;;;;;;5058933;28;20486;-78
2021/10/19 11:23:21;;;;;;;13.33;12.03;;;18.60;1.00;;;;;;5056349;28;20478;-78
2021/10/19 11:25:49;;;;;;;14.63;12.43;;;18.90;1.00;;;;;;5054236;28;21249;-78
2021/10/19 11:28:15;;;;;;;12.50;11.20;;;19.20;1.00;;;;;;5061412;28;20525;-79
2021/10/19 11:30:44;;;;;;;11.83;10.53;;;19.80;1.00;;;;;;5058998;28;20431;-78
2021/10/19 11:33:11;;;;;;;18.03;13.07;;;20.60;1.00;;;;;;5055235;28;20481;-79
2021/10/19 11:35:39;;;;;;;13.70;11.40;;;21.50;1.00;;;;;;5058297;28;20448;-77
2021/10/19 11:38:06;;;;;;;14.33;11.80;;;22.30;1.00;;;;;;5059133;28;20980;-78
2021/10/19 11:40:32;;;;;;;13.47;10.80;;;22.30;1.00;;;;;;5060703;28;20777;-79
2021/10/19 11:42:59;;;;;;;13.50;11.20;;;22.30;1.00;;;;;;5056577;28;21635;-77
2021/10/19 11:45:27;;;;;;;10.93;9.90;;;22.10;1.00;;;;;;5059284;28;20476;-80
2021/10/19 11:47:56;;;;;;;11.40;10.10;;;21.90;1.00;;;;;;5056327;28;20563;-79
2021/10/19 11:50:25;;;;;;;11.00;9.87;;;21.50;1.00;;;;;;5061392;28;20470;-79
2021/10/19 11:52:54;;;;;;;12.90;11.70;;;21.30;1.00;;;;;;5059199;28;20527;-78
2021/10/19 11:55:21;;;;;;;15.03;10.50;;;21.10;1.00;;;;;;5057949;28;20465;-79
2021/10/19 11:57:50;;;;;;;10.47;9.37;;;21.00;1.00;;;;;;5057397;28;20475;-78
2021/10/19 12:00:18;;;;;;;14.30;9.57;;;21.20;1.00;;;;;;5062066;28;20440;-79
2021/10/19 12:02:54;;;;;;;11.07;9.97;;;21.10;1.00;;;;;;5062277;28;20473;-79
2021/10/19 12:05:23;;;;;;;9.60;8.70;;;21.00;1.00;;;;;;5060584;28;20484;-79
2021/10/19 12:07:51;;;;;;;8.87;7.97;;;20.60;1.00;;;;;;5058793;28;20451;-78
2021/10/19 12:10:22;;;;;;;10.57;9.10;;;20.30;1.00;;;;;;5057089;28;20529;-78
2021/10/19 12:13:02;;;;;;;9.43;8.20;;;20.20;1.00;;;;;;5058169;28;20478;-79
2021/10/19 12:15:32;;;;;;;10.30;8.70;;;19.80;1.00;;;;;;5059102;28;21068;-78
2021/10/19 12:18:00;;;;;;;11.90;8.97;;;19.50;1.00;;;;;;5061122;28;20448;-76
2021/10/19 12:20:29;;;;;;;11.50;8.70;;;19.30;1.00;;;;;;5059452;28;20549;-78
2021/10/19 12:22:59;;;;;;;12.17;8.10;;;19.40;1.00;;;;;;5061894;28;20446;-78
2021/10/19 12:25:33;;;;;;;8.50;7.60;;;19.50;1.00;;;;;;5060920;28;21696;-78
2021/10/19 12:28:00;;;;;;;10.10;8.20;;;19.70;1.00;;;;;;5059348;28;20439;-80
2021/10/19 12:30:27;;;;;;;9.60;8.60;;;19.60;1.00;;;;;;5058445;28;20451;-78
2021/10/19 12:32:54;;;;;;;8.20;7.30;;;19.30;1.00;;;;;;5055772;28;20466;-78
2021/10/19 12:35:21;;;;;;;9.50;8.50;;;19.10;1.00;;;;;;5059883;28;20490;-78
2021/10/19 12:37:47;;;;;;;8.50;7.67;;;19.10;1.00;;;;;;5058354;28;20438;-79
2021/10/19 12:40:19;;;;;;;9.00;7.80;;;18.90;1.00;;;;;;5058601;28;20475;-79
2021/10/19 12:42:47;;;;;;;8.40;7.60;;;18.90;1.00;;;;;;5057354;28;20464;-78